createdAt,value
2022-10-31T00:01:16.786Z,36.70
2022-10-31T00:04:20.070Z,35.28
2022-10-31T00:07:23.442Z,32.13
2022-10-31T00:10:29.953Z,33.70
2022-10-31T00:13:33.299Z,29.37
2022-10-31T00:16:36.763Z,32.83
2022-10-31T00:19:40.093Z,34.90
2022-10-31T00:22:43.448Z,34.25
2022-10-31T00:25:46.820Z,32.03
2022-10-31T00:28:50.348Z,35.03
2022-10-31T00:31:54.118Z,31.10
2022-10-31T00:34:57.474Z,34.30
2022-10-31T00:38:01.686Z,33.17
2022-10-31T00:41:05.205Z,32.55
2022-10-31T00:44:08.584Z,29.10
2022-10-31T00:47:11.993Z,30.93
2022-10-31T00:50:15.384Z,31.63
2022-10-31T00:53:18.757Z,33.67
2022-10-31T00:56:23.060Z,32.08
2022-10-31T00:59:26.582Z,32.33
2022-10-31T01:02:30.129Z,33.20
2022-10-31T01:05:33.745Z,32.00
2022-10-31T01:08:39.971Z,33.05
2022-10-31T01:11:43.341Z,32.42
2022-10-31T01:14:47.211Z,35.33
2022-10-31T01:17:51.156Z,38.23
2022-10-31T01:21:09.413Z,36.67
2022-10-31T01:24:12.728Z,33.80
2022-10-31T01:27:16.057Z,37.20
2022-10-31T01:30:19.424Z,36.10
2022-10-31T01:33:22.856Z,36.93
2022-10-31T01:36:32.484Z,37.25
2022-10-31T01:39:35.898Z,37.30
2022-10-31T01:42:39.346Z,33.53
2022-10-31T01:45:45.227Z,35.67
2022-10-31T01:48:49.090Z,31.73
2022-10-31T01:51:58.740Z,33.22
2022-10-31T01:55:05.025Z,33.35
2022-10-31T01:58:23.487Z,33.67
2022-10-31T02:01:27.091Z,35.17
2022-10-31T02:04:31.239Z,34.17
2022-10-31T02:07:49.608Z,38.58
2022-10-31T02:10:53.025Z,35.22
2022-10-31T02:13:56.889Z,38.85
2022-10-31T02:17:00.273Z,34.37
2022-10-31T02:20:17.147Z,34.47
2022-10-31T02:23:29.385Z,39.40
2022-10-31T02:26:57.430Z,35.83
2022-10-31T02:30:18.921Z,39.72
2022-10-31T02:33:44.372Z,42.47
2022-10-31T02:37:15.379Z,35.87
2022-10-31T02:40:27.788Z,39.13
2022-10-31T02:44:29.545Z,38.67
2022-10-31T02:47:39.592Z,39.13
2022-10-31T02:50:49.327Z,39.30
2022-10-31T02:53:52.631Z,30.43
2022-10-31T02:57:08.052Z,35.38
2022-10-31T03:00:11.946Z,37.30
2022-10-31T03:03:39.393Z,36.55
2022-10-31T03:06:57.547Z,33.37
2022-10-31T03:10:19.149Z,32.33
2022-10-31T03:13:46.145Z,36.75
2022-10-31T03:16:55.246Z,37.63
2022-10-31T03:20:01.671Z,37.97
2022-10-31T03:23:08.218Z,39.07
2022-10-31T03:26:13.500Z,38.90
2022-10-31T03:29:20.634Z,41.53
2022-10-31T03:32:50.261Z,35.83
2022-10-31T03:35:56.291Z,38.88
2022-10-31T03:39:02.442Z,38.03
2022-10-31T03:42:12.901Z,43.03
2022-10-31T03:45:31.088Z,37.67
2022-10-31T03:48:35.131Z,35.03
2022-10-31T03:51:57.069Z,41.95
2022-10-31T03:55:25.217Z,39.67
2022-10-31T03:58:39.263Z,37.43
2022-10-31T04:01:48.527Z,39.55
2022-10-31T04:04:53.065Z,39.70
2022-10-31T04:07:58.391Z,36.67
2022-10-31T04:11:04.152Z,39.40
2022-10-31T04:14:09.528Z,39.37
2022-10-31T04:17:19.572Z,34.35
2022-10-31T04:20:39.198Z,37.65
2022-10-31T04:23:42.599Z,37.42
2022-10-31T04:27:01.325Z,39.70
2022-10-31T04:30:06.418Z,34.23
2022-10-31T04:33:12.644Z,34.65
2022-10-31T04:36:16.231Z,31.48
2022-10-31T04:39:24.167Z,40.35
2022-10-31T04:43:02.477Z,37.70
2022-10-31T04:46:06.319Z,34.23
2022-10-31T04:49:10.546Z,36.75
2022-10-31T04:52:14.281Z,32.45
2022-10-31T04:55:17.882Z,39.60
2022-10-31T04:58:41.523Z,34.50
2022-10-31T05:01:46.431Z,34.47
2022-10-31T05:04:49.905Z,36.63
2022-10-31T05:07:54.782Z,34.80
2022-10-31T05:11:04.906Z,35.80
2022-10-31T05:14:09.220Z,35.03
2022-10-31T05:17:31.931Z,39.77
2022-10-31T05:21:01.258Z,32.83
2022-10-31T05:24:24.951Z,33.33
2022-10-31T05:27:29.313Z,34.78
2022-10-31T05:30:34.210Z,34.97
2022-10-31T05:33:37.685Z,36.10
2022-10-31T05:36:59.456Z,34.97
2022-10-31T05:40:08.591Z,33.35
2022-10-31T05:43:12.149Z,33.47
2022-10-31T05:46:15.710Z,34.13
2022-10-31T05:49:37.651Z,30.63
2022-10-31T05:53:04.856Z,37.30
2022-10-31T05:56:12.679Z,35.58
2022-10-31T05:59:16.026Z,26.10
2022-10-31T06:02:20.092Z,29.33
2022-10-31T06:05:41.711Z,29.07
2022-10-31T06:08:45.291Z,30.73
2022-10-31T06:11:51.971Z,32.05
2022-10-31T06:15:01.043Z,30.70
2022-10-31T06:18:06.642Z,29.70
2022-10-31T06:21:16.331Z,27.03
2022-10-31T06:24:22.593Z,27.60
2022-10-31T06:27:46.178Z,34.83
2022-10-31T06:30:51.489Z,32.47
2022-10-31T06:33:55.514Z,35.90
2022-10-31T06:36:58.949Z,33.47
2022-10-31T06:40:03.074Z,35.53
2022-10-31T06:43:12.368Z,41.38
2022-10-31T06:46:17.049Z,41.55
2022-10-31T06:49:33.512Z,44.40
2022-10-31T06:52:39.584Z,33.80
2022-10-31T06:55:43.593Z,34.88
2022-10-31T06:58:46.981Z,30.10
2022-10-31T07:01:51.450Z,31.70
2022-10-31T07:04:54.889Z,34.33
2022-10-31T07:08:02.499Z,28.53
2022-10-31T07:11:06.744Z,34.10
2022-10-31T07:14:10.612Z,33.20
2022-10-31T07:17:14.379Z,32.95
2022-10-31T07:20:21.294Z,30.70
2022-10-31T07:23:25.347Z,28.97
2022-10-31T07:26:48.795Z,47.35
2022-10-31T07:29:52.372Z,31.38
2022-10-31T07:32:56.525Z,26.63
2022-10-31T07:36:01.863Z,31.73
2022-10-31T07:39:07.823Z,27.77
2022-10-31T07:42:12.386Z,25.58
2022-10-31T07:45:21.965Z,20.90
2022-10-31T07:48:45.643Z,22.67
2022-10-31T07:52:07.642Z,20.23
2022-10-31T07:55:31.272Z,19.80
2022-10-31T07:58:35.260Z,21.73
2022-10-31T08:01:38.649Z,24.88
2022-10-31T08:05:07.992Z,23.23
2022-10-31T08:08:32.313Z,22.67
2022-10-31T08:11:38.774Z,21.23
2022-10-31T08:14:43.597Z,25.55
2022-10-31T08:17:46.957Z,23.90
2022-10-31T08:20:50.336Z,28.50
2022-10-31T08:23:54.321Z,26.93
2022-10-31T08:27:00.544Z,25.80
2022-10-31T08:30:04.169Z,22.33
2022-10-31T08:33:13.537Z,25.77
2022-10-31T08:36:52.856Z,21.38
2022-10-31T08:40:07.630Z,18.47
2022-10-31T08:43:16.579Z,22.43
2022-10-31T08:46:20.320Z,23.52
2022-10-31T08:49:24.681Z,24.45
2022-10-31T08:52:51.186Z,23.67
2022-10-31T08:55:55.076Z,25.67
2022-10-31T08:59:00.993Z,25.07
2022-10-31T09:02:24.697Z,22.70
2022-10-31T09:05:33.978Z,20.92
2022-10-31T09:08:38.444Z,19.70
2022-10-31T09:11:41.839Z,21.33
2022-10-31T09:14:47.997Z,22.53
2022-10-31T09:18:04.304Z,20.25
2022-10-31T09:21:25.980Z,20.05
2022-10-31T09:24:30.242Z,19.10
2022-10-31T09:27:33.614Z,19.17
2022-10-31T09:30:39.308Z,21.30
2022-10-31T09:33:43.266Z,23.10
2022-10-31T09:37:09.256Z,21.20
2022-10-31T09:40:12.877Z,23.23
2022-10-31T09:43:36.274Z,23.67
2022-10-31T09:47:01.186Z,24.53
2022-10-31T09:50:15.765Z,28.85
2022-10-31T09:53:37.409Z,28.65
2022-10-31T09:56:41.457Z,23.65
2022-10-31T09:59:47.837Z,19.53
2022-10-31T10:03:14.616Z,25.77
2022-10-31T10:06:28.549Z,23.70
2022-10-31T10:09:52.175Z,22.85
2022-10-31T10:13:33.328Z,22.08
2022-10-31T10:16:49.973Z,22.87
2022-10-31T10:20:12.872Z,16.90
2022-10-31T10:23:54.613Z,19.27
2022-10-31T10:27:36.683Z,26.58
2022-10-31T10:31:03.618Z,21.13
2022-10-31T10:34:24.256Z,17.57
2022-10-31T10:37:39.457Z,20.97
2022-10-31T10:40:43.661Z,18.27
2022-10-31T10:47:18.909Z,20.85
2022-10-31T10:50:28.583Z,18.60
2022-10-31T10:54:12.360Z,21.13
2022-10-31T10:57:25.275Z,18.00
2022-10-31T11:00:33.514Z,22.83
2022-10-31T11:03:37.555Z,17.63
2022-10-31T11:06:40.998Z,17.20
2022-10-31T11:09:44.527Z,18.30
2022-10-31T11:13:06.263Z,20.83
2022-10-31T11:16:41.575Z,17.60
2022-10-31T11:19:45.081Z,26.15
2022-10-31T11:22:50.070Z,16.43
2022-10-31T11:26:04.302Z,15.90
2022-10-31T11:29:16.919Z,15.20
2022-10-31T11:32:22.162Z,12.90
2022-10-31T11:35:27.079Z,14.40
2022-10-31T11:38:51.061Z,12.67
2022-10-31T11:41:55.349Z,13.33
2022-10-31T11:44:59.166Z,17.77
2022-10-31T11:48:14.651Z,14.80
2022-10-31T11:51:29.196Z,13.45
2022-10-31T11:55:15.668Z,19.47
2022-10-31T11:58:27.206Z,18.30
2022-10-31T12:01:33.775Z,16.58
2022-10-31T12:04:45.757Z,17.17
2022-10-31T12:07:50.204Z,14.63
2022-10-31T12:11:18.688Z,13.67
2022-10-31T12:14:47.545Z,13.20
2022-10-31T12:17:59.691Z,14.05
2022-10-31T12:21:30.849Z,15.20
2022-10-31T12:24:50.781Z,14.98
2022-10-31T12:28:00.394Z,15.03
2022-10-31T12:31:18.516Z,15.33
2022-10-31T12:34:49.051Z,18.05
2022-10-31T12:37:59.115Z,16.33
2022-10-31T12:41:27.258Z,15.20
2022-10-31T12:44:30.633Z,18.20
2022-10-31T12:48:20.339Z,14.23
2022-10-31T12:52:04.313Z,15.45
2022-10-31T12:55:45.250Z,22.20
2022-10-31T12:59:18.214Z,15.90
2022-10-31T13:02:30.664Z,15.17
2022-10-31T13:05:46.993Z,16.43
2022-10-31T13:08:56.086Z,16.95
2022-10-31T13:12:05.795Z,17.33
2022-10-31T13:15:26.290Z,14.18
2022-10-31T13:18:45.570Z,15.07
2022-10-31T13:21:54.673Z,16.93
2022-10-31T13:25:10.117Z,18.55
2022-10-31T13:28:24.436Z,21.15
2022-10-31T13:31:28.053Z,28.95
2022-10-31T13:34:41.605Z,25.27
2022-10-31T13:37:55.073Z,20.27
2022-10-31T13:41:14.669Z,16.67
2022-10-31T13:44:27.444Z,20.02
2022-10-31T13:47:32.260Z,16.48
2022-10-31T13:50:36.588Z,17.90
2022-10-31T13:53:57.981Z,21.60
2022-10-31T13:57:01.757Z,19.10
2022-10-31T14:00:28.881Z,19.92
2022-10-31T14:04:02.084Z,22.67
2022-10-31T14:07:07.472Z,21.97
2022-10-31T14:10:29.283Z,21.77
2022-10-31T14:13:43.918Z,25.85
2022-10-31T14:16:55.730Z,22.98
2022-10-31T14:20:24.903Z,23.60
2022-10-31T14:23:41.668Z,20.70
2022-10-31T14:26:58.701Z,18.83
2022-10-31T14:30:16.880Z,17.73
2022-10-31T14:33:23.022Z,21.23
2022-10-31T14:36:57.671Z,20.52
2022-10-31T14:40:08.463Z,22.63
2022-10-31T14:43:21.069Z,24.60
2022-10-31T14:46:43.140Z,23.77
2022-10-31T14:49:58.437Z,21.90
2022-10-31T14:53:05.824Z,17.27
2022-10-31T14:56:12.810Z,22.87
2022-10-31T14:59:20.988Z,22.27
2022-10-31T15:02:47.505Z,24.08
2022-10-31T15:05:53.921Z,24.95
2022-10-31T15:08:57.367Z,21.00
2022-10-31T15:12:20.098Z,45.43
2022-10-31T15:15:28.010Z,49.63
2022-10-31T15:18:31.443Z,37.80
2022-10-31T15:21:36.485Z,25.25
2022-10-31T15:24:40.518Z,23.05
2022-10-31T15:27:43.913Z,21.83
2022-10-31T15:30:59.260Z,24.50
2022-10-31T15:34:16.929Z,22.23
2022-10-31T15:37:22.684Z,20.85
2022-10-31T15:40:27.891Z,21.25
2022-10-31T15:43:37.841Z,20.83
2022-10-31T15:46:41.650Z,19.20
2022-10-31T15:49:57.582Z,22.35
2022-10-31T15:53:02.438Z,21.52
2022-10-31T15:56:09.810Z,22.83
2022-10-31T15:59:23.338Z,29.97
2022-10-31T16:02:28.626Z,27.97
2022-10-31T16:05:45.067Z,23.38
2022-10-31T16:08:51.523Z,25.77
2022-10-31T16:11:57.270Z,22.00
2022-10-31T16:15:00.795Z,22.33
2022-10-31T16:18:06.681Z,23.00
2022-10-31T16:21:14.220Z,23.52
2022-10-31T16:24:20.434Z,19.00
2022-10-31T16:27:30.026Z,22.63
2022-10-31T16:30:48.809Z,20.80
2022-10-31T16:34:07.066Z,21.17
2022-10-31T16:37:10.606Z,24.83
2022-10-31T16:40:15.759Z,23.73
2022-10-31T16:43:20.774Z,23.15
2022-10-31T16:46:26.767Z,24.63
2022-10-31T16:49:30.428Z,25.00
2022-10-31T16:52:38.201Z,22.38
2022-10-31T16:55:58.289Z,22.27
2022-10-31T16:59:12.090Z,23.98
2022-10-31T17:02:18.753Z,22.83
2022-10-31T17:05:30.060Z,24.20
2022-10-31T17:08:34.198Z,25.55
2022-10-31T17:11:39.912Z,25.90
2022-10-31T17:14:44.409Z,21.55
2022-10-31T17:17:47.713Z,19.13
2022-10-31T17:20:51.622Z,21.80
2022-10-31T17:23:55.452Z,21.75
2022-10-31T17:26:58.974Z,24.48
2022-10-31T17:30:02.374Z,23.88
2022-10-31T17:33:06.632Z,24.10
2022-10-31T17:36:10.029Z,21.27
2022-10-31T17:39:13.383Z,20.48
2022-10-31T17:42:17.017Z,22.58
2022-10-31T17:45:21.869Z,26.70
2022-10-31T17:48:25.432Z,23.30
2022-10-31T17:51:28.976Z,22.20
2022-10-31T17:54:32.394Z,20.75
2022-10-31T17:57:37.049Z,22.50
2022-10-31T18:00:41.855Z,21.67
2022-10-31T18:03:46.463Z,23.17
2022-10-31T18:06:50.993Z,22.37
2022-10-31T18:09:54.707Z,21.58
2022-10-31T18:12:58.343Z,21.85
2022-10-31T18:16:02.271Z,20.58
2022-10-31T18:19:06.090Z,21.57
2022-10-31T18:22:09.795Z,28.10
2022-10-31T18:25:13.361Z,21.05
2022-10-31T18:28:16.881Z,21.65
2022-10-31T18:31:21.130Z,22.63
2022-10-31T18:34:24.776Z,24.63
2022-10-31T18:37:28.946Z,22.33
2022-10-31T18:40:36.172Z,23.48
2022-10-31T18:43:39.872Z,20.83
2022-10-31T18:46:43.429Z,22.65
2022-10-31T18:49:47.047Z,26.10
2022-10-31T18:52:50.733Z,24.33
2022-10-31T18:55:54.212Z,22.70
2022-10-31T18:59:03.535Z,24.48
2022-10-31T19:02:07.065Z,23.67
2022-10-31T19:05:10.832Z,22.33
2022-10-31T19:08:14.617Z,22.37
2022-10-31T19:11:18.953Z,25.83
2022-10-31T19:14:22.793Z,23.00
2022-10-31T19:17:26.988Z,24.40
2022-10-31T19:20:30.773Z,25.97
2022-10-31T19:23:34.330Z,27.03
2022-10-31T19:26:37.875Z,25.50
2022-10-31T19:29:42.322Z,23.48
2022-10-31T19:32:46.488Z,21.48
2022-10-31T19:35:49.935Z,21.50
2022-10-31T19:38:54.385Z,25.40
2022-10-31T19:41:58.103Z,23.42
2022-10-31T19:45:03.660Z,23.50
2022-10-31T19:48:07.194Z,30.25
2022-10-31T19:51:16.491Z,27.77
2022-10-31T19:54:19.922Z,26.23
2022-10-31T19:57:41.925Z,25.35
2022-10-31T20:00:47.154Z,25.67
2022-10-31T20:03:51.469Z,30.25
2022-10-31T20:06:54.707Z,26.87
2022-10-31T20:09:58.340Z,25.20
2022-10-31T20:13:02.355Z,26.52
2022-10-31T20:16:08.878Z,25.38
2022-10-31T20:19:12.673Z,24.85
2022-10-31T20:22:16.224Z,21.77
2022-10-31T20:25:19.543Z,23.37
2022-10-31T20:28:23.122Z,23.67
2022-10-31T20:31:29.413Z,24.83
2022-10-31T20:34:32.871Z,24.42
2022-10-31T20:37:36.464Z,26.70
2022-10-31T20:40:40.493Z,26.23
2022-10-31T20:43:44.472Z,23.48
2022-10-31T20:46:47.940Z,27.00
2022-10-31T20:49:51.708Z,29.17
2022-10-31T20:52:55.285Z,28.13
2022-10-31T20:56:07.879Z,24.20
2022-10-31T20:59:12.491Z,32.38
2022-10-31T21:02:15.962Z,29.17
2022-10-31T21:05:19.751Z,25.30
2022-10-31T21:08:24.409Z,27.57
2022-10-31T21:11:29.398Z,25.90
2022-10-31T21:14:32.771Z,26.77
2022-10-31T21:17:36.177Z,24.95
2022-10-31T21:20:44.009Z,26.52
2022-10-31T21:23:48.117Z,28.87
2022-10-31T21:26:52.604Z,22.80
2022-10-31T21:29:55.936Z,24.10
2022-10-31T21:32:59.389Z,26.17
2022-10-31T21:36:03.728Z,26.10
2022-10-31T21:39:08.145Z,27.87
2022-10-31T21:42:11.605Z,26.87
2022-10-31T21:45:15.032Z,23.40
2022-10-31T21:48:18.504Z,26.35
2022-10-31T21:51:28.351Z,27.60
2022-10-31T21:54:33.317Z,25.13
2022-10-31T21:57:36.707Z,27.57
2022-10-31T22:00:40.165Z,25.88
2022-10-31T22:03:44.135Z,32.65
2022-10-31T22:06:47.561Z,28.20
2022-10-31T22:09:51.029Z,26.27
2022-10-31T22:12:54.348Z,29.00
2022-10-31T22:16:01.718Z,29.83
2022-10-31T22:19:07.978Z,32.53
2022-10-31T22:22:13.189Z,32.65
2022-10-31T22:25:16.700Z,28.27
2022-10-31T22:28:20.039Z,34.67
2022-10-31T22:31:24.352Z,36.13
2022-10-31T22:34:27.805Z,28.85
2022-10-31T22:37:31.115Z,32.35
2022-10-31T22:40:34.500Z,31.33
2022-10-31T22:43:38.469Z,31.17
2022-10-31T22:46:41.849Z,29.73
2022-10-31T22:49:45.160Z,24.80
2022-10-31T22:52:48.444Z,28.80
2022-10-31T22:55:51.844Z,25.37
2022-10-31T22:58:55.878Z,26.83
2022-10-31T23:01:59.384Z,28.27
2022-10-31T23:05:03.073Z,28.60
2022-10-31T23:08:06.861Z,30.95
2022-10-31T23:11:26.693Z,25.60
2022-10-31T23:14:30.043Z,26.30
2022-10-31T23:17:33.320Z,25.13
2022-10-31T23:20:36.818Z,25.92
2022-10-31T23:23:40.199Z,22.45
2022-10-31T23:27:02.166Z,26.03
2022-10-31T23:30:05.883Z,26.50
2022-10-31T23:33:09.177Z,25.13
2022-10-31T23:36:12.524Z,30.20
2022-10-31T23:39:18.810Z,26.83
2022-10-31T23:42:26.166Z,25.80
2022-10-31T23:45:29.860Z,29.37
2022-10-31T23:48:33.177Z,28.15
2022-10-31T23:51:36.473Z,26.33
2022-10-31T23:54:40.265Z,26.05
2022-10-31T23:57:43.592Z,29.80
